createdAt,value
2018-04-25T00:00:01.444Z,0
2018-04-25T00:01:01.436Z,0
2018-04-25T00:02:01.167Z,0
2018-04-25T00:03:01.177Z,0
2018-04-25T00:04:00.634Z,0
2018-04-25T00:05:00.882Z,0
2018-04-25T00:06:01.395Z,0
2018-04-25T00:07:01.378Z,0
2018-04-25T00:08:01.111Z,0
2018-04-25T00:09:01.105Z,0
2018-04-25T00:10:01.356Z,0
2018-04-25T00:11:01.085Z,0
2018-04-25T00:12:01.074Z,0
2018-04-25T00:13:01.331Z,0
2018-04-25T00:14:01.074Z,0
2018-04-25T00:15:01.309Z,0
2018-04-25T00:16:01.189Z,0
2018-04-25T00:17:00.791Z,0
2018-04-25T00:18:01.280Z,0
2018-04-25T00:19:00.759Z,0
2018-04-25T00:20:00.748Z,0
2018-04-25T00:21:00.990Z,0
2018-04-25T00:22:00.730Z,0
2018-04-25T00:23:00.924Z,0
2018-04-25T00:24:00.965Z,0
2018-04-25T00:25:00.967Z,0
2018-04-25T00:26:01.219Z,0
2018-04-25T00:27:00.943Z,0
2018-04-25T00:28:00.952Z,0
2018-04-25T00:29:01.186Z,0
2018-04-25T00:30:01.177Z,0
2018-04-25T00:31:01.163Z,0
2018-04-25T00:32:00.656Z,0
2018-04-25T00:33:01.142Z,0
2018-04-25T00:34:00.618Z,0
2018-04-25T00:35:01.208Z,0
2018-04-25T00:36:00.349Z,0
2018-04-25T00:37:00.674Z,0
2018-04-25T00:38:01.116Z,0
2018-04-25T00:39:00.831Z,0
2018-04-25T00:40:00.567Z,0
2018-04-25T00:41:00.814Z,0
2018-04-25T00:42:01.065Z,0
2018-04-25T00:43:00.802Z,0
2018-04-25T00:44:01.051Z,0
2018-04-25T00:45:00.521Z,0
2018-04-25T00:46:00.771Z,0
2018-04-25T00:47:00.770Z,0
2018-04-25T00:48:01.020Z,0
2018-04-25T00:49:01.002Z,0
2018-04-25T00:50:00.994Z,0
2018-04-25T00:51:00.727Z,0
2018-04-25T00:52:00.717Z,0
2018-04-25T00:53:00.970Z,0
2018-04-25T00:54:00.699Z,0
2018-04-25T00:55:00.436Z,0
2018-04-25T00:56:00.939Z,0
2018-04-25T00:57:00.932Z,0
2018-04-25T00:58:00.931Z,0
2018-04-25T00:59:00.658Z,0
2018-04-25T01:00:00.647Z,0
2018-04-25T01:01:00.911Z,0
2018-04-25T01:02:00.395Z,0
2018-04-25T01:03:00.387Z,0
2018-04-25T01:04:00.612Z,0
2018-04-25T01:05:00.603Z,0
2018-04-25T01:06:00.855Z,0
2018-04-25T01:07:00.069Z,0
2018-04-25T01:08:00.840Z,0
2018-04-25T01:09:00.307Z,0
2018-04-25T01:10:00.835Z,0
2018-04-25T01:11:00.548Z,0
2018-04-25T01:12:01.658Z,0
2018-04-25T01:13:00.541Z,0
2018-04-25T01:14:00.785Z,0
2018-04-25T01:15:00.518Z,0
2018-04-25T01:16:00.247Z,0
2018-04-25T01:17:00.757Z,0
2018-04-25T01:18:00.481Z,0
2018-04-25T01:19:00.729Z,0
2018-04-25T01:20:00.742Z,0
2018-04-25T01:21:00.196Z,0
2018-04-25T01:22:00.703Z,0
2018-04-25T01:23:00.692Z,0
2018-04-25T01:24:00.710Z,0
2018-04-25T01:25:00.681Z,0
2018-04-25T01:26:00.413Z,0
2018-04-25T01:27:00.403Z,0
2018-04-25T01:28:00.656Z,0
2018-04-25T01:29:01.265Z,0
2018-04-25T01:30:00.631Z,0
2018-04-25T01:31:00.101Z,0
2018-04-25T01:32:00.359Z,0
2018-04-25T01:33:00.079Z,0
2018-04-25T01:34:00.091Z,0
2018-04-25T01:35:00.060Z,0
2018-04-25T01:36:00.570Z,0
2018-04-25T01:37:00.053Z,0
2018-04-25T01:38:00.290Z,0
2018-04-25T01:39:00.282Z,0
2018-04-25T01:40:00.032Z,0
2018-04-25T01:41:00.517Z,0
2018-04-25T01:42:00.513Z,0
2018-04-25T01:43:00.253Z,0
2018-04-25T01:43:59.720Z,0
2018-04-25T01:45:00.227Z,0
2018-04-25T01:46:00.213Z,0
2018-04-25T01:47:00.464Z,0
2018-04-25T01:47:59.934Z,0
2018-04-25T01:49:00.186Z,0
2018-04-25T01:50:00.174Z,0
2018-04-25T01:51:00.425Z,0
2018-04-25T01:52:00.649Z,0
2018-04-25T01:52:59.889Z,0
2018-04-25T01:54:00.133Z,0
2018-04-25T01:55:00.198Z,0
2018-04-25T01:55:59.860Z,0
2018-04-25T01:57:00.105Z,0
2018-04-25T01:58:00.115Z,0
2018-04-25T01:59:00.084Z,0
2018-04-25T02:00:00.339Z,0
2018-04-25T02:01:00.322Z,0
2018-04-25T02:01:59.799Z,0
2018-04-25T02:03:00.052Z,0
2018-04-25T02:04:00.044Z,0
2018-04-25T02:04:59.772Z,0
2018-04-25T02:06:00.017Z,0
2018-04-25T02:07:00.264Z,0
2018-04-25T02:07:59.746Z,0
2018-04-25T02:09:00.248Z,0
2018-04-25T02:09:59.469Z,0
2018-04-25T02:10:59.970Z,0
2018-04-25T02:12:00.236Z,0
2018-04-25T02:12:59.708Z,0
2018-04-25T02:13:59.949Z,0
2018-04-25T02:14:59.674Z,0
2018-04-25T02:15:59.927Z,0
2018-04-25T02:17:00.174Z,0
2018-04-25T02:17:59.389Z,0
2018-04-25T02:18:59.920Z,0
2018-04-25T02:19:59.899Z,0
2018-04-25T02:20:59.887Z,0
2018-04-25T02:21:59.608Z,0
2018-04-25T02:22:59.339Z,0
2018-04-25T02:23:59.596Z,0
2018-04-25T02:24:59.848Z,0
2018-04-25T02:26:00.088Z,0
2018-04-25T02:26:59.824Z,0
2018-04-25T02:27:59.815Z,0
2018-04-25T02:28:59.552Z,0
2018-04-25T02:29:59.792Z,0
2018-04-25T02:30:59.789Z,0
2018-04-25T02:32:00.033Z,0
2018-04-25T02:33:00.040Z,0
2018-04-25T02:34:00.015Z,0
2018-04-25T02:35:00.030Z,0
2018-04-25T02:36:00.026Z,0
2018-04-25T02:36:59.737Z,0
2018-04-25T02:37:59.727Z,0
2018-04-25T02:38:59.715Z,0
2018-04-25T02:39:59.703Z,0
2018-04-25T02:40:59.690Z,0
2018-04-25T02:41:59.689Z,0
2018-04-25T02:42:59.419Z,0
2018-04-25T02:43:59.677Z,0
2018-04-25T02:44:59.951Z,0
2018-04-25T02:45:59.929Z,0
2018-04-25T02:46:59.896Z,0
2018-04-25T02:48:00.101Z,0
2018-04-25T02:48:59.128Z,0
2018-04-25T02:49:59.880Z,0
2018-04-25T02:50:59.609Z,0
2018-04-25T02:51:59.075Z,0
2018-04-25T02:52:59.594Z,0
2018-04-25T02:53:59.833Z,0
2018-04-25T02:54:59.561Z,0
2018-04-25T02:55:59.298Z,0
2018-04-25T02:56:59.554Z,0
2018-04-25T02:57:59.535Z,0
2018-04-25T02:59:00.118Z,0
2018-04-25T02:59:59.531Z,0
2018-04-25T03:00:59.779Z,0
2018-04-25T03:01:59.710Z,0
2018-04-25T03:02:59.500Z,0
2018-04-25T03:03:59.485Z,0
2018-04-25T03:04:59.739Z,0
2018-04-25T03:05:59.220Z,0
2018-04-25T03:06:59.466Z,0
2018-04-25T03:07:59.456Z,0
2018-04-25T03:08:59.709Z,0
2018-04-25T03:09:59.174Z,0
2018-04-25T03:10:59.438Z,0
2018-04-25T03:11:59.816Z,0
2018-04-25T03:12:59.739Z,0
2018-04-25T03:13:59.655Z,0
2018-04-25T03:14:59.645Z,0
2018-04-25T03:15:59.375Z,0
2018-04-25T03:16:58.948Z,0
2018-04-25T03:17:59.097Z,0
2018-04-25T03:18:59.608Z,0
2018-04-25T03:19:59.599Z,0
2018-04-25T03:20:59.592Z,0
2018-04-25T03:21:58.802Z,0
2018-04-25T03:22:59.569Z,0
2018-04-25T03:23:59.562Z,0
2018-04-25T03:24:59.297Z,0
2018-04-25T03:25:59.286Z,0
2018-04-25T03:26:59.537Z,0
2018-04-25T03:27:59.271Z,0
2018-04-25T03:28:59.261Z,0
2018-04-25T03:29:58.992Z,0
2018-04-25T03:30:59.258Z,0
2018-04-25T03:31:59.251Z,0
2018-04-25T03:32:58.971Z,0
2018-04-25T03:33:59.208Z,0
2018-04-25T03:34:59.202Z,0
2018-04-25T03:35:59.454Z,0
2018-04-25T03:36:59.442Z,0
2018-04-25T03:37:59.175Z,0
2018-04-25T03:38:58.650Z,0
2018-04-25T03:39:59.163Z,0
2018-04-25T03:40:59.201Z,0
2018-04-25T03:41:59.141Z,0
2018-04-25T03:42:58.888Z,0
2018-04-25T03:43:58.872Z,0
2018-04-25T03:44:59.120Z,0
2018-04-25T03:45:59.104Z,0
2018-04-25T03:46:59.096Z,0
2018-04-25T03:47:59.341Z,0
2018-04-25T03:48:58.828Z,0
2018-04-25T03:49:58.816Z,0
2018-04-25T03:50:59.334Z,0
2018-04-25T03:51:59.051Z,0
2018-04-25T03:52:59.055Z,0
2018-04-25T03:53:59.037Z,5
2018-04-25T03:54:58.763Z,5
2018-04-25T03:55:59.270Z,5
2018-04-25T03:56:59.003Z,5
2018-04-25T03:57:58.998Z,5
2018-04-25T03:58:59.314Z,5
2018-04-25T03:59:58.725Z,5
2018-04-25T04:00:58.973Z,5
2018-04-25T04:01:58.960Z,10
2018-04-25T04:02:59.027Z,10
2018-04-25T04:03:58.939Z,10
2018-04-25T04:04:58.675Z,10
2018-04-25T04:05:58.670Z,10
2018-04-25T04:06:58.703Z,10
2018-04-25T04:07:58.905Z,15
2018-04-25T04:08:58.645Z,15
2018-04-25T04:09:58.884Z,15
2018-04-25T04:10:58.879Z,15
2018-04-25T04:11:58.354Z,15
2018-04-25T04:12:59.031Z,20
2018-04-25T04:13:58.857Z,20
2018-04-25T04:14:59.110Z,20
2018-04-25T04:15:58.833Z,20
2018-04-25T04:16:58.840Z,20
2018-04-25T04:17:58.818Z,25
2018-04-25T04:18:59.069Z,25
2018-04-25T04:19:59.067Z,25
2018-04-25T04:20:59.046Z,25
2018-04-25T04:21:59.049Z,30
2018-04-25T04:22:59.040Z,30
2018-04-25T04:23:58.503Z,35
2018-04-25T04:24:59.066Z,35
2018-04-25T04:25:58.490Z,35
2018-04-25T04:26:58.739Z,40
2018-04-25T04:27:58.729Z,40
2018-04-25T04:28:58.995Z,40
2018-04-25T04:29:58.470Z,45
2018-04-25T04:30:58.957Z,45
2018-04-25T04:31:58.699Z,45
2018-04-25T04:32:58.427Z,45
2018-04-25T04:33:58.676Z,45
2018-04-25T04:34:58.891Z,45
2018-04-25T04:35:58.665Z,45
2018-04-25T04:36:58.654Z,45
2018-04-25T04:37:58.642Z,50
2018-04-25T04:38:58.633Z,50
2018-04-25T04:39:58.911Z,50
2018-04-25T04:40:58.360Z,50
2018-04-25T04:41:58.603Z,50
2018-04-25T04:42:58.353Z,55
2018-04-25T04:43:58.334Z,55
2018-04-25T04:44:58.583Z,55
2018-04-25T04:45:58.833Z,55
2018-04-25T04:46:58.826Z,60
2018-04-25T04:47:58.813Z,60
2018-04-25T04:48:58.817Z,60
2018-04-25T04:49:58.538Z,60
2018-04-25T04:50:58.536Z,60
2018-04-25T04:51:58.547Z,60
2018-04-25T04:52:57.994Z,65
2018-04-25T04:53:58.779Z,65
2018-04-25T04:54:58.503Z,65
2018-04-25T04:55:58.229Z,65
2018-04-25T04:56:58.490Z,65
2018-04-25T04:57:58.215Z,70
2018-04-25T04:58:58.499Z,70
2018-04-25T04:59:58.887Z,70
2018-04-25T05:00:58.716Z,70
2018-04-25T05:01:58.715Z,70
2018-04-25T05:02:58.175Z,70
2018-04-25T05:03:58.694Z,70
2018-04-25T05:04:58.409Z,75
2018-04-25T05:05:58.414Z,75
2018-04-25T05:06:58.401Z,75
2018-04-25T05:07:58.646Z,80
2018-04-25T05:08:58.646Z,80
2018-04-25T05:09:58.628Z,80
2018-04-25T05:10:58.360Z,80
2018-04-25T05:11:58.354Z,75
2018-04-25T05:12:58.608Z,80
2018-04-25T05:13:58.647Z,80
2018-04-25T05:14:58.067Z,80
2018-04-25T05:15:58.777Z,80
2018-04-25T05:16:58.334Z,80
2018-04-25T05:17:58.567Z,80
2018-04-25T05:18:58.768Z,85
2018-04-25T05:19:58.551Z,90
2018-04-25T05:20:58.544Z,90
2018-04-25T05:21:58.534Z,90
2018-04-25T05:22:58.527Z,90
2018-04-25T05:23:58.262Z,95
2018-04-25T05:24:58.247Z,95
2018-04-25T05:25:58.239Z,95
2018-04-25T05:26:57.718Z,95
2018-04-25T05:27:58.481Z,95
2018-04-25T05:28:58.218Z,95
2018-04-25T05:29:58.214Z,95
2018-04-25T05:30:58.458Z,95
2018-04-25T05:31:58.486Z,100
2018-04-25T05:32:58.189Z,100
2018-04-25T05:33:58.431Z,100
2018-04-25T05:34:57.915Z,100
2018-04-25T05:35:58.417Z,100
2018-04-25T05:36:58.407Z,100
2018-04-25T05:37:57.885Z,100
2018-04-25T05:38:58.535Z,100
2018-04-25T05:39:58.126Z,105
2018-04-25T05:40:58.381Z,105
2018-04-25T05:41:58.380Z,105
2018-04-25T05:42:58.117Z,110
2018-04-25T05:43:58.103Z,110
2018-04-25T05:44:58.090Z,110
2018-04-25T05:45:57.599Z,110
2018-04-25T05:46:58.083Z,115
2018-04-25T05:47:58.076Z,115
2018-04-25T05:48:57.795Z,115
2018-04-25T05:49:57.784Z,115
2018-04-25T05:50:57.787Z,120
2018-04-25T05:51:57.775Z,120
2018-04-25T05:52:58.026Z,120
2018-04-25T05:53:58.273Z,120
2018-04-25T05:54:58.304Z,120
2018-04-25T05:55:58.006Z,125
2018-04-25T05:56:58.253Z,120
2018-04-25T05:57:58.815Z,115
2018-04-25T05:58:57.975Z,115
2018-04-25T05:59:58.233Z,115
2018-04-25T06:00:57.963Z,115
2018-04-25T06:01:58.211Z,120
2018-04-25T06:02:58.196Z,120
2018-04-25T06:03:57.938Z,120
2018-04-25T06:04:58.195Z,120
2018-04-25T06:05:57.927Z,120
2018-04-25T06:06:57.913Z,115
2018-04-25T06:07:58.196Z,120
2018-04-25T06:08:58.166Z,125
2018-04-25T06:09:57.897Z,120
2018-04-25T06:10:57.883Z,120
2018-04-25T06:11:57.620Z,115
2018-04-25T06:12:57.872Z,120
2018-04-25T06:13:57.611Z,125
2018-04-25T06:14:57.870Z,125
2018-04-25T06:15:57.589Z,130
2018-04-25T06:16:58.098Z,130
2018-04-25T06:17:57.836Z,130
2018-04-25T06:18:58.047Z,130
2018-04-25T06:19:58.301Z,130
2018-04-25T06:20:57.818Z,130
2018-04-25T06:21:58.047Z,130
2018-04-25T06:22:58.051Z,130
2018-04-25T06:23:58.054Z,130
2018-04-25T06:24:57.788Z,130
2018-04-25T06:25:57.779Z,125
2018-04-25T06:26:57.770Z,130
2018-04-25T06:27:57.767Z,130
2018-04-25T06:28:57.762Z,130
2018-04-25T06:29:57.750Z,130
2018-04-25T06:30:57.483Z,130
2018-04-25T06:31:57.750Z,135
2018-04-25T06:32:57.471Z,135
2018-04-25T06:33:57.987Z,135
2018-04-25T06:34:57.979Z,165
2018-04-25T06:35:57.189Z,150
2018-04-25T06:36:57.707Z,160
2018-04-25T06:37:57.444Z,170
2018-04-25T06:38:57.431Z,190
2018-04-25T06:39:57.686Z,190
2018-04-25T06:40:57.674Z,215
2018-04-25T06:41:57.673Z,235
2018-04-25T06:42:57.664Z,240
2018-04-25T06:43:57.926Z,250
2018-04-25T06:44:56.916Z,260
2018-04-25T06:45:57.393Z,290
2018-04-25T06:46:57.904Z,265
2018-04-25T06:47:57.631Z,250
2018-04-25T06:48:57.660Z,270
2018-04-25T06:49:57.837Z,295
2018-04-25T06:50:57.611Z,295
2018-04-25T06:51:57.870Z,300
2018-04-25T06:52:57.617Z,305
2018-04-25T06:53:57.082Z,310
2018-04-25T06:54:57.083Z,310
2018-04-25T06:55:57.598Z,325
2018-04-25T06:56:58.314Z,325
2018-04-25T06:57:57.326Z,320
2018-04-25T06:58:57.343Z,325
2018-04-25T06:59:57.320Z,325
2018-04-25T07:00:57.572Z,325
2018-04-25T07:01:57.839Z,320
2018-04-25T07:02:57.054Z,330
2018-04-25T07:03:57.578Z,335
2018-04-25T07:04:57.570Z,335
2018-04-25T07:05:57.311Z,330
2018-04-25T07:06:57.304Z,335
2018-04-25T07:07:57.137Z,220
2018-04-25T07:08:57.305Z,345
2018-04-25T07:09:57.559Z,345
2018-04-25T07:10:57.558Z,335
2018-04-25T07:11:57.824Z,365
2018-04-25T07:12:57.041Z,230
2018-04-25T07:13:57.899Z,230
2018-04-25T07:14:57.555Z,230
2018-04-25T07:15:57.575Z,210
2018-04-25T07:16:57.823Z,210
2018-04-25T07:17:57.568Z,190
2018-04-25T07:18:57.822Z,195
2018-04-25T07:19:57.566Z,175
2018-04-25T07:20:57.569Z,190
2018-04-25T07:21:57.828Z,185
2018-04-25T07:22:57.565Z,190
2018-04-25T07:23:58.337Z,195
2018-04-25T07:24:57.577Z,190
2018-04-25T07:25:57.309Z,185
2018-04-25T07:26:57.310Z,200
2018-04-25T07:27:57.829Z,250
2018-04-25T07:28:57.313Z,270
2018-04-25T07:29:57.309Z,255
2018-04-25T07:30:57.579Z,235
2018-04-25T07:31:57.834Z,215
2018-04-25T07:32:57.568Z,220
2018-04-25T07:33:56.803Z,200
2018-04-25T07:34:57.834Z,210
2018-04-25T07:35:56.797Z,195
2018-04-25T07:36:57.834Z,185
2018-04-25T07:37:57.566Z,185
2018-04-25T07:38:57.054Z,190
2018-04-25T07:39:57.321Z,180
2018-04-25T07:40:57.582Z,180
2018-04-25T07:41:58.118Z,195
2018-04-25T07:42:57.788Z,210
2018-04-25T07:43:57.572Z,185
2018-04-25T07:44:57.838Z,185
2018-04-25T07:45:57.314Z,175
2018-04-25T07:46:57.619Z,170
2018-04-25T07:47:57.830Z,190
2018-04-25T07:48:57.824Z,180
2018-04-25T07:49:57.590Z,175
2018-04-25T07:50:57.568Z,175
2018-04-25T07:51:57.841Z,170
2018-04-25T07:52:57.310Z,175
2018-04-25T07:53:57.302Z,175
2018-04-25T07:54:57.556Z,180
2018-04-25T07:55:57.557Z,195
2018-04-25T07:56:57.578Z,185
2018-04-25T07:57:57.726Z,200
2018-04-25T07:58:57.811Z,200
2018-04-25T07:59:57.558Z,250
2018-04-25T08:00:57.801Z,230
2018-04-25T08:01:57.026Z,190
2018-04-25T08:02:57.537Z,220
2018-04-25T08:03:57.306Z,160
2018-04-25T08:04:57.544Z,210
2018-04-25T08:05:57.080Z,210
2018-04-25T08:06:57.792Z,220
2018-04-25T08:07:57.788Z,290
2018-04-25T08:08:57.017Z,310
2018-04-25T08:09:57.011Z,320
2018-04-25T08:10:57.807Z,375
2018-04-25T08:11:57.007Z,335
2018-04-25T08:12:57.262Z,360
2018-04-25T08:13:56.744Z,340
2018-04-25T08:14:57.517Z,355
2018-04-25T08:15:57.513Z,315
2018-04-25T08:16:57.776Z,405
2018-04-25T08:17:57.391Z,275
2018-04-25T08:18:57.253Z,250
2018-04-25T08:19:57.531Z,320
2018-04-25T08:20:57.246Z,285
2018-04-25T08:21:57.510Z,250
2018-04-25T08:22:57.512Z,300
2018-04-25T08:23:58.018Z,350
2018-04-25T08:24:57.511Z,260
2018-04-25T08:25:57.240Z,240
2018-04-25T08:26:57.307Z,315
2018-04-25T08:27:57.231Z,345
2018-04-25T08:28:57.492Z,265
2018-04-25T08:29:57.771Z,330
2018-04-25T08:30:57.743Z,325
2018-04-25T08:31:57.227Z,270
2018-04-25T08:32:57.227Z,325
2018-04-25T08:33:57.481Z,325
2018-04-25T08:34:57.274Z,310
2018-04-25T08:35:57.747Z,265
2018-04-25T08:36:57.441Z,205
2018-04-25T08:37:57.214Z,225
2018-04-25T08:38:57.475Z,305
2018-04-25T08:39:57.729Z,280
2018-04-25T08:40:57.206Z,315
2018-04-25T08:41:57.725Z,280
2018-04-25T08:42:57.928Z,290
2018-04-25T08:43:57.463Z,305
2018-04-25T08:44:58.614Z,320
2018-04-25T08:45:57.399Z,275
2018-04-25T08:46:57.732Z,380
2018-04-25T08:47:57.461Z,330
2018-04-25T08:48:57.443Z,365
2018-04-25T08:49:57.704Z,370
2018-04-25T08:50:57.785Z,355
2018-04-25T08:51:57.472Z,335
2018-04-25T08:52:56.921Z,260
2018-04-25T08:53:57.691Z,195
2018-04-25T08:54:57.428Z,245
2018-04-25T08:55:57.179Z,320
2018-04-25T08:56:57.173Z,325
2018-04-25T08:57:57.572Z,290
2018-04-25T08:58:57.451Z,280
2018-04-25T08:59:56.903Z,340
2018-04-25T09:00:57.674Z,295
2018-04-25T09:01:57.153Z,265
2018-04-25T09:02:57.160Z,230
2018-04-25T09:03:57.373Z,240
2018-04-25T09:04:57.700Z,245
2018-04-25T09:05:57.771Z,335
2018-04-25T09:06:57.659Z,390
2018-04-25T09:07:57.674Z,390
2018-04-25T09:08:57.137Z,290
2018-04-25T09:09:57.663Z,220
2018-04-25T09:10:57.630Z,190
2018-04-25T09:11:57.131Z,150
2018-04-25T09:12:57.712Z,155
2018-04-25T09:13:57.653Z,135
2018-04-25T09:14:57.121Z,170
2018-04-25T09:15:57.692Z,155
2018-04-25T09:16:57.375Z,135
2018-04-25T09:17:57.117Z,130
2018-04-25T09:18:56.857Z,155
2018-04-25T09:19:57.128Z,190
2018-04-25T09:20:57.375Z,275
2018-04-25T09:21:57.305Z,325
2018-04-25T09:22:57.711Z,400
2018-04-25T09:23:57.367Z,450
2018-04-25T09:24:57.355Z,440
2018-04-25T09:25:57.621Z,360
2018-04-25T09:26:57.367Z,270
2018-04-25T09:27:57.090Z,230
2018-04-25T09:28:57.562Z,225
2018-04-25T09:29:56.820Z,320
2018-04-25T09:30:56.817Z,385
2018-04-25T09:31:57.329Z,365
2018-04-25T09:32:57.328Z,340
2018-04-25T09:33:57.067Z,330
2018-04-25T09:34:57.322Z,365
2018-04-25T09:35:57.594Z,340
2018-04-25T09:36:57.583Z,330
2018-04-25T09:37:57.074Z,325
2018-04-25T09:38:57.318Z,305
2018-04-25T09:39:57.308Z,290
2018-04-25T09:40:56.808Z,345
2018-04-25T09:41:56.788Z,360
2018-04-25T09:42:57.297Z,350
2018-04-25T09:43:57.036Z,380
2018-04-25T09:44:57.052Z,410
2018-04-25T09:45:57.401Z,435
2018-04-25T09:46:57.547Z,385
2018-04-25T09:47:57.030Z,395
2018-04-25T09:48:57.539Z,400
2018-04-25T09:49:57.287Z,270
2018-04-25T09:50:57.543Z,185
2018-04-25T09:51:57.999Z,215
2018-04-25T09:52:57.268Z,225
2018-04-25T09:53:58.162Z,190
2018-04-25T09:54:57.274Z,220
2018-04-25T09:55:57.274Z,235
2018-04-25T09:56:57.263Z,240
2018-04-25T09:57:57.926Z,245
2018-04-25T09:58:57.061Z,245
2018-04-25T09:59:57.423Z,285
2018-04-25T10:00:57.616Z,300
2018-04-25T10:01:57.512Z,365
2018-04-25T10:02:57.520Z,455
2018-04-25T10:03:57.079Z,475
2018-04-25T10:04:57.513Z,440
2018-04-25T10:05:56.985Z,415
2018-04-25T10:06:57.514Z,395
2018-04-25T10:07:56.978Z,410
2018-04-25T10:08:57.495Z,345
2018-04-25T10:09:56.974Z,310
2018-04-25T10:10:57.901Z,285
2018-04-25T10:11:56.974Z,220
2018-04-25T10:12:57.222Z,220
2018-04-25T10:13:57.253Z,245
2018-04-25T10:14:57.215Z,290
2018-04-25T10:15:57.217Z,310
2018-04-25T10:16:57.489Z,340
2018-04-25T10:17:57.017Z,355
2018-04-25T10:18:57.210Z,425
2018-04-25T10:19:57.490Z,455
2018-04-25T10:20:56.695Z,485
2018-04-25T10:21:56.949Z,505
2018-04-25T10:22:57.460Z,460
2018-04-25T10:23:57.624Z,395
2018-04-25T10:24:57.211Z,370
2018-04-25T10:25:57.470Z,355
2018-04-25T10:26:57.449Z,325
2018-04-25T10:27:57.201Z,330
2018-04-25T10:28:56.923Z,280
2018-04-25T10:29:57.217Z,230
2018-04-25T10:30:56.925Z,195
2018-04-25T10:31:57.275Z,180
2018-04-25T10:32:57.173Z,205
2018-04-25T10:33:57.181Z,235
2018-04-25T10:34:57.182Z,230
2018-04-25T10:35:56.656Z,190
2018-04-25T10:36:57.130Z,145
2018-04-25T10:37:57.170Z,150
2018-04-25T10:38:57.697Z,195
2018-04-25T10:39:57.171Z,205
2018-04-25T10:40:57.434Z,200
2018-04-25T10:41:57.162Z,280
2018-04-25T10:42:56.642Z,390
2018-04-25T10:43:57.420Z,425
2018-04-25T10:44:57.139Z,470
2018-04-25T10:45:57.167Z,510
2018-04-25T10:46:57.137Z,505
2018-04-25T10:47:56.879Z,500
2018-04-25T10:48:56.881Z,475
2018-04-25T10:49:57.145Z,420
2018-04-25T10:50:56.869Z,370
2018-04-25T10:51:57.396Z,265
2018-04-25T10:52:57.382Z,150
2018-04-25T10:53:57.124Z,120
2018-04-25T10:54:57.084Z,190
2018-04-25T10:55:57.379Z,240
2018-04-25T10:56:57.371Z,160
2018-04-25T10:57:56.853Z,120
2018-04-25T10:58:57.113Z,155
2018-04-25T10:59:57.392Z,185
2018-04-25T11:00:57.366Z,220
2018-04-25T11:01:56.843Z,240
2018-04-25T11:02:57.358Z,200
2018-04-25T11:03:57.102Z,185
2018-04-25T11:04:57.101Z,275
2018-04-25T11:05:56.851Z,275
2018-04-25T11:06:57.098Z,405
2018-04-25T11:07:57.338Z,550
2018-04-25T11:08:57.100Z,540
2018-04-25T11:09:57.335Z,485
2018-04-25T11:10:56.558Z,405
2018-04-25T11:11:57.352Z,375
2018-04-25T11:12:57.068Z,405
2018-04-25T11:13:56.812Z,365
2018-04-25T11:14:57.270Z,370
2018-04-25T11:15:57.336Z,360
2018-04-25T11:16:57.322Z,335
2018-04-25T11:17:56.802Z,335
2018-04-25T11:18:56.799Z,270
2018-04-25T11:19:57.306Z,190
2018-04-25T11:20:57.309Z,205
2018-04-25T11:21:57.044Z,260
2018-04-25T11:22:57.259Z,295
2018-04-25T11:23:57.040Z,290
2018-04-25T11:24:57.090Z,310
2018-04-25T11:25:57.044Z,300
2018-04-25T11:26:56.515Z,290
2018-04-25T11:27:56.770Z,230
2018-04-25T11:28:56.510Z,235
2018-04-25T11:29:57.322Z,215
2018-04-25T11:30:56.763Z,210
2018-04-25T11:31:57.542Z,305
2018-04-25T11:32:57.489Z,390
2018-04-25T11:33:57.020Z,420
2018-04-25T11:34:57.277Z,420
2018-04-25T11:35:56.746Z,410
2018-04-25T11:36:56.748Z,365
2018-04-25T11:37:57.260Z,365
2018-04-25T11:38:57.256Z,425
2018-04-25T11:39:57.208Z,465
2018-04-25T11:40:57.260Z,400
2018-04-25T11:41:56.994Z,380
2018-04-25T11:42:56.727Z,360
2018-04-25T11:43:56.721Z,325
2018-04-25T11:44:56.722Z,335
2018-04-25T11:45:57.048Z,375
2018-04-25T11:46:56.983Z,365
2018-04-25T11:47:56.986Z,465
2018-04-25T11:48:57.232Z,440
2018-04-25T11:49:57.233Z,345
2018-04-25T11:50:57.223Z,275
2018-04-25T11:51:56.968Z,295
2018-04-25T11:52:56.963Z,340
2018-04-25T11:53:56.955Z,315
2018-04-25T11:54:56.952Z,395
2018-04-25T11:55:57.213Z,325
2018-04-25T11:56:57.204Z,340
2018-04-25T11:57:56.953Z,320
2018-04-25T11:58:56.944Z,320
2018-04-25T11:59:56.943Z,305
2018-04-25T12:00:57.203Z,335
2018-04-25T12:01:56.942Z,295
2018-04-25T12:02:57.640Z,300
2018-04-25T12:03:57.207Z,290
2018-04-25T12:04:56.976Z,230
2018-04-25T12:05:57.193Z,250
2018-04-25T12:06:56.926Z,295
2018-04-25T12:07:56.926Z,355
2018-04-25T12:08:56.944Z,350
2018-04-25T12:09:57.161Z,320
2018-04-25T12:10:57.181Z,235
2018-04-25T12:11:56.913Z,230
2018-04-25T12:12:57.173Z,290
2018-04-25T12:13:56.927Z,370
2018-04-25T12:14:56.655Z,310
2018-04-25T12:15:56.912Z,245
2018-04-25T12:16:56.898Z,205
2018-04-25T12:17:57.170Z,190
2018-04-25T12:18:57.074Z,220
2018-04-25T12:19:56.952Z,205
2018-04-25T12:20:57.159Z,180
2018-04-25T12:21:56.893Z,150
2018-04-25T12:22:57.144Z,145
2018-04-25T12:23:57.366Z,175
2018-04-25T12:24:57.141Z,185
2018-04-25T12:25:57.143Z,195
2018-04-25T12:26:57.102Z,185
2018-04-25T12:27:56.884Z,220
2018-04-25T12:28:57.133Z,290
2018-04-25T12:29:56.879Z,225
2018-04-25T12:30:56.864Z,255
2018-04-25T12:31:56.807Z,190
2018-04-25T12:32:56.865Z,165
2018-04-25T12:33:56.598Z,225
2018-04-25T12:34:56.602Z,235
2018-04-25T12:35:57.500Z,225
2018-04-25T12:36:56.849Z,240
2018-04-25T12:37:57.115Z,235
2018-04-25T12:38:56.846Z,230
2018-04-25T12:39:56.837Z,255
2018-04-25T12:40:57.137Z,240
2018-04-25T12:41:56.584Z,260
2018-04-25T12:42:56.851Z,210
2018-04-25T12:43:57.089Z,185
2018-04-25T12:44:56.568Z,175
2018-04-25T12:45:56.897Z,205
2018-04-25T12:46:56.840Z,250
2018-04-25T12:47:57.087Z,305
2018-04-25T12:48:56.580Z,345
2018-04-25T12:49:57.067Z,365
2018-04-25T12:50:57.072Z,385
2018-04-25T12:51:56.827Z,430
2018-04-25T12:52:56.871Z,455
2018-04-25T12:53:56.592Z,425
2018-04-25T12:54:56.544Z,445
2018-04-25T12:55:57.284Z,495
2018-04-25T12:56:56.534Z,495
2018-04-25T12:57:56.792Z,495
2018-04-25T12:58:56.550Z,505
2018-04-25T12:59:57.268Z,470
2018-04-25T13:00:56.784Z,335
2018-04-25T13:01:56.875Z,295
2018-04-25T13:02:56.788Z,350
2018-04-25T13:03:57.057Z,400
2018-04-25T13:04:57.038Z,455
2018-04-25T13:05:56.773Z,440
2018-04-25T13:06:56.791Z,450
2018-04-25T13:07:57.244Z,390
2018-04-25T13:08:56.794Z,300
2018-04-25T13:09:56.782Z,260
2018-04-25T13:10:56.779Z,265
2018-04-25T13:11:57.024Z,295
2018-04-25T13:12:56.762Z,350
2018-04-25T13:13:56.546Z,395
2018-04-25T13:14:57.015Z,410
2018-04-25T13:15:57.029Z,370
2018-04-25T13:16:56.499Z,315
2018-04-25T13:17:56.495Z,310
2018-04-25T13:18:56.239Z,300
2018-04-25T13:19:57.008Z,350
2018-04-25T13:20:56.769Z,395
2018-04-25T13:21:56.488Z,445
2018-04-25T13:22:56.485Z,395
2018-04-25T13:23:56.999Z,315
2018-04-25T13:24:57.012Z,265
2018-04-25T13:25:56.741Z,315
2018-04-25T13:26:56.738Z,350
2018-04-25T13:27:56.773Z,305
2018-04-25T13:28:56.568Z,215
2018-04-25T13:29:56.988Z,265
2018-04-25T13:30:57.000Z,320
2018-04-25T13:31:56.728Z,295
2018-04-25T13:32:56.473Z,245
2018-04-25T13:33:56.996Z,200
2018-04-25T13:34:56.728Z,175
2018-04-25T13:35:56.772Z,225
2018-04-25T13:36:56.479Z,260
2018-04-25T13:37:56.719Z,210
2018-04-25T13:38:56.970Z,160
2018-04-25T13:39:56.979Z,145
2018-04-25T13:40:56.452Z,125
2018-04-25T13:41:56.989Z,105
2018-04-25T13:42:56.725Z,80
2018-04-25T13:43:56.453Z,105
2018-04-25T13:44:56.976Z,130
2018-04-25T13:45:56.967Z,75
2018-04-25T13:46:57.232Z,55
2018-04-25T13:47:56.896Z,60
2018-04-25T13:48:56.432Z,75
2018-04-25T13:49:56.704Z,90
2018-04-25T13:50:56.441Z,140
2018-04-25T13:51:56.680Z,260
2018-04-25T13:52:56.691Z,360
2018-04-25T13:53:56.930Z,435
2018-04-25T13:54:56.424Z,445
2018-04-25T13:55:56.416Z,380
2018-04-25T13:56:56.703Z,320
2018-04-25T13:57:56.147Z,320
2018-04-25T13:58:56.407Z,340
2018-04-25T13:59:56.917Z,345
2018-04-25T14:00:56.795Z,355
2018-04-25T14:01:56.672Z,310
2018-04-25T14:02:56.657Z,300
2018-04-25T14:03:56.384Z,290
2018-04-25T14:04:56.406Z,215
2018-04-25T14:05:56.642Z,170